Latest Weather Observations for Gayndah

IDQ60801

Issued at 10:02 am EST Monday 2 February 2015 (issued every 30 minutes, with the page automatically refreshed every 10 minutes)

About weather observations | Map of weather stations | Latest weather observations for QLD | Other Formats
Station Details ID: 039066 Name: GAYNDAH AIRPORT Lat: -25.62 Lon: 151.62 Height: 110.9 m
Data from the previous 72 hours. | See also: Recent months at Gayndah
Date/Time
EST
Temp
°C
App
Temp
°C
Dew
Point
Rel
Hum
%
Delta-T
°C
Wind Press
QNH
hPa
Press
MSL
hPa
Rain
since 9 am
mm
Dir
 
Spd
km/h
Gust
km/h
Spd
kts
Gust
kts
02/10:00am 29.1 32.1 20.8 61 5.5 NNE 6 9 3 5 1008.8 1008.1 0.0
02/09:30am 28.0 31.1 21.1 66 4.6 NNE 6 9 3 5 1008.8 1008.1 0.0
02/09:00am 28.4 31.4 21.9 68 4.4 NE 9 17 5 9 1009.0 1008.3 0.0
02/08:30am 27.4 30.4 21.9 72 3.7 ENE 9 15 5 8 1008.9 1008.2 0.0
02/08:00am 26.9 30.2 21.9 74 3.4 NE 7 13 4 7 1008.9 1008.2 0.0
02/07:30am 25.9 29.1 21.6 77 2.9 ENE 7 9 4 5 1008.6 1007.9 0.0
02/07:00am 24.8 28.5 20.7 78 2.7 NNE 2 6 1 3 1008.2 1007.5 0.0
02/06:30am 23.7 27.8 20.8 84 1.9 CALM 0 0 0 0 1008.0 1007.3 0.0
02/06:00am 22.6 26.7 20.7 89 1.2 CALM 0 0 0 0 1007.6 1006.9 0.0
02/05:30am 22.2 25.5 20.8 92 0.9 NNE 4 4 2 2 1007.2 1006.5 0.0
02/05:00am 22.3 25.6 20.8 91 1.0 NNE 4 6 2 3 1006.9 1006.2 0.0
02/04:30am 22.5 26.3 21.0 91 1.0 NNE 2 4 1 2 1006.7 1006.0 0.0
02/04:00am 22.6 25.9 20.7 89 1.2 ENE 4 7 2 4 1006.4 1005.7 0.0
02/03:30am 23.1 25.7 21.2 89 1.3 E 9 11 5 6 1006.3 1005.6 0.0
02/03:00am 23.4 26.1 21.3 88 1.4 ENE 9 9 5 5 1006.3 1005.6 0.0
02/02:30am 24.4 27.2 21.5 84 1.9 ENE 9 13 5 7 1006.4 1005.7 0.0
02/02:00am 24.7 27.5 21.6 83 2.1 ENE 9 13 5 7 1006.5 1005.8 0.0
02/01:30am 24.8 27.3 21.7 83 2.1 ENE 11 17 6 9 1006.7 1006.0 0.0
02/01:00am 24.8 27.2 21.5 82 2.2 ENE 11 17 6 9 1006.8 1006.1 0.0
02/12:30am 23.9 26.9 21.2 85 1.8 ENE 7 9 4 5 1007.0 1006.3 0.0
02/12:00am 24.2 27.2 21.3 84 1.9 ENE 7 11 4 6 1007.2 1006.5 0.0
 
Date/Time
EST
Temp
°C
App
Temp
°C
Dew
Point
Rel
Hum
%
Delta-T
°C
Wind Press
QNH
hPa
Press
MSL
hPa
Rain
since 9 am
mm
Dir
 
Spd
km/h
Gust
km/h
Spd
kts
Gust
kts
01/11:30pm 24.4 26.8 21.5 84 1.9 NE 11 17 6 9 1007.4 1006.7 0.0
01/11:00pm 24.8 26.8 21.5 82 2.2 ENE 13 20 7 11 1007.4 1006.7 0.0
01/10:30pm 24.8 27.2 21.5 82 2.2 E 11 15 6 8 1007.5 1006.8 0.0
01/10:00pm 24.9 27.7 21.6 82 2.2 ENE 9 15 5 8 1007.4 1006.7 0.0
01/09:30pm 25.4 27.5 21.7 80 2.5 ENE 13 17 7 9 1007.1 1006.4 0.0
01/09:00pm 23.8 22.7 15.3 59 5.1 NE 15 20 8 11 1006.6 1005.9 0.0
01/08:30pm 26.6 27.5 13.0 43 8.0 CALM 0 2 0 1 1005.8 1005.1 0.0
01/08:00pm 25.9 27.3 14.4 49 6.9 CALM 0 4 0 2 1005.7 1005.0 0.0
01/07:30pm 27.4 29.0 14.8 46 7.6 CALM 0 2 0 1 1005.5 1004.8 0.0
01/07:00pm 29.8 29.6 11.8 33 10.5 SSE 4 7 2 4 1005.0 1004.3 0.0
01/06:30pm 31.8 31.0 11.0 28 12.1 SSW 6 9 3 5 1004.6 1004.0 0.0
01/06:00pm 33.1 31.1 8.5 22 13.9 SSW 9 13 5 7 1004.2 1003.6 0.0
01/05:30pm 34.0 32.3 9.9 23 13.9 SW 9 13 5 7 1003.9 1003.3 0.0
01/05:00pm 34.3 32.1 9.5 22 14.3 SSW 11 17 6 9 1003.8 1003.2 0.0
01/04:30pm 34.8 33.3 11.9 25 13.7 WSW 11 19 6 10 1003.5 1002.9 0.0
01/04:00pm 34.6 34.0 13.4 28 13.0 SW 9 19 5 10 1003.6 1003.0 0.0
01/03:30pm 34.7 33.9 13.0 27 13.2 SW 9 17 5 9 1003.6 1003.0 0.0
01/03:00pm 34.1 33.0 13.0 28 12.8 WSW 11 20 6 11 1003.8 1003.2 0.0
01/02:30pm 34.3 33.8 13.7 29 12.6 WSW 9 15 5 8 1004.1 1003.5 0.0
01/02:00pm 32.9 31.8 13.0 30 12.0 WSW 11 19 6 10 1004.4 1003.8 0.0
01/01:30pm 33.1 34.3 16.0 35 10.8 SSW 4 9 2 5 1004.7 1004.1 0.0
01/01:00pm 33.1 33.2 16.5 37 10.6 SW 11 19 6 10 1005.2 1004.5 0.0
01/12:30pm 32.8 33.1 17.8 40 9.7 SW 13 19 7 10 1005.7 1005.0 0.0
01/12:00pm 31.9 31.8 17.8 43 9.1 WSW 15 20 8 11 1006.0 1005.3 0.0
01/11:30am 31.7 32.1 19.0 47 8.3 WSW 15 22 8 12 1006.5 1005.8 0.0
01/11:00am 31.1 31.7 18.5 47 8.2 WSW 13 22 7 12 1007.0 1006.3 0.0
01/10:30am 30.1 31.2 18.8 50 7.3 WSW 11 17 6 9 1007.6 1006.9 0.0
01/10:00am 29.4 31.0 19.1 54 6.7 WSW 9 17 5 9 1007.8 1007.1 0.0
01/09:30am 28.3 29.5 19.0 57 6.0 WSW 11 19 6 10 1007.7 1007.0 0.0
01/09:00am 27.6 28.4 19.1 59 5.5 WSW 13 19 7 10 1007.8 1007.1 0.0
01/08:30am 26.5 28.2 19.4 65 4.6 WSW 9 17 5 9 1008.0 1007.3 0.0
01/08:00am 25.6 28.1 19.9 70 3.7 SW 6 11 3 6 1008.0 1007.3 0.0
01/07:30am 24.4 27.9 19.5 74 3.2 CALM 0 6 0 3 1008.1 1007.4 0.0
01/07:00am 23.6 27.6 20.5 83 2.0 CALM 0 0 0 0 1007.8 1007.1 0.0
01/06:30am 22.4 26.2 20.1 87 1.5 CALM 0 0 0 0 1007.7 1007.0 0.0
01/06:00am 20.6 24.0 19.4 93 0.8 CALM 0 0 0 0 1007.3 1006.6 0.0
01/05:30am 20.2 23.5 19.2 94 0.6 CALM 0 0 0 0 1006.9 1006.2 0.0
01/05:00am 20.3 23.6 19.0 92 0.8 CALM 0 0 0 0 1006.7 1006.0 0.0
01/04:30am 20.3 23.6 19.1 93 0.8 CALM 0 0 0 0 1006.5 1005.8 0.0
01/04:00am 20.9 24.6 19.9 94 0.6 CALM 0 0 0 0 1006.3 1005.6 0.0
01/03:30am 21.2 24.8 19.7 91 1.0 CALM 0 0 0 0 1006.0 1005.3 0.0
01/03:00am 21.6 24.9 19.9 90 1.1 NE 2 2 1 1 1006.1 1005.4 0.0
01/02:30am 21.9 24.9 20.0 89 1.2 NE 4 4 2 2 1006.1 1005.4 0.0
01/02:00am 22.1 25.4 20.0 88 1.4 NNE 2 6 1 3 1006.3 1005.6 0.0
01/01:30am 21.6 25.1 19.5 88 1.3 CALM 0 0 0 0 1006.5 1005.8 0.0
01/01:00am 22.2 25.8 19.7 86 1.6 CALM 0 0 0 0 1006.5 1005.8 0.0
01/12:30am 22.9 26.6 19.9 83 1.9 CALM 0 0 0 0 1006.7 1006.0 0.0
01/12:00am 22.7 25.9 19.7 83 1.9 E 2 4 1 2 1006.9 1006.2 0.0
 
Date/Time
EST
Temp
°C
App
Temp
°C
Dew
Point
Rel
Hum
%
Delta-T
°C
Wind Press
QNH
hPa
Press
MSL
hPa
Rain
since 9 am
mm
Dir
 
Spd
km/h
Gust
km/h
Spd
kts
Gust
kts
31/11:30pm 23.1 25.9 19.7 81 2.2 ESE 4 6 2 3 1007.2 1006.5 0.0
31/11:00pm 23.1 25.7 19.3 79 2.4 E 4 6 2 3 1007.2 1006.5 0.0
31/10:30pm 23.7 26.6 19.0 75 3.0 E 2 6 1 3 1007.3 1006.6 0.0
31/10:00pm 24.0 26.5 19.1 74 3.1 ENE 4 7 2 4 1007.3 1006.6 0.0
31/09:30pm 24.5 26.7 19.1 72 3.5 ENE 6 7 3 4 1007.0 1006.3 0.0
31/09:00pm 25.2 27.1 18.9 68 4.0 NE 7 9 4 5 1006.7 1006.0 0.0
31/08:30pm 26.0 27.4 19.6 68 4.2 NE 11 17 6 9 1006.3 1005.6 0.0
31/08:00pm 26.7 28.1 19.6 65 4.6 NE 11 15 6 8 1006.1 1005.4 0.0
31/07:30pm 27.7 29.2 18.1 56 6.1 SSE 7 11 4 6 1005.7 1005.0 0.0
31/07:00pm 29.8 32.2 16.9 45 8.2 CALM 0 0 0 0 1005.3 1004.6 0.0
31/06:30pm 31.0 32.3 17.0 43 8.9 NW 6 6 3 3 1004.7 1004.1 0.0
31/06:00pm 32.1 33.6 15.6 37 10.3 N 2 7 1 4 1004.4 1003.7 0.0
31/05:30pm 32.5 34.4 16.8 39 10.0 NNW 2 4 1 2 1004.1 1003.4 0.0
31/05:00pm 32.5 34.1 16.8 39 10.0 NNW 4 6 2 3 1003.8 1003.1 0.0
31/04:30pm 32.9 33.3 15.4 35 10.9 NW 7 9 4 5 1003.7 1003.0 0.0
31/04:00pm 32.9 33.5 16.7 38 10.3 NW 9 15 5 8 1003.9 1003.2 0.0
31/03:30pm 33.4 34.4 16.3 36 10.8 SW 6 11 3 6 1004.0 1003.3 0.0
31/03:00pm 32.9 33.5 15.8 35 10.8 SW 7 17 4 9 1004.5 1003.8 0.0
31/02:30pm 32.4 33.9 17.5 41 9.6 NE 6 13 3 7 1005.2 1004.5 0.0
31/02:00pm 31.8 32.8 16.9 40 9.5 N 7 15 4 8 1005.6 1004.9 0.0
31/01:30pm 31.7 33.0 17.2 42 9.3 WSW 6 11 3 6 1005.9 1005.2 0.0
31/01:00pm 31.1 32.1 17.8 45 8.6 WNW 9 15 5 8 1006.5 1005.8 0.0
31/12:30pm 30.4 32.6 19.7 52 7.0 NW 7 13 4 7 1007.1 1006.4 0.0
31/12:00pm 29.9 32.0 19.0 52 7.1 SW 6 9 3 5 1007.4 1006.7 0.0
31/11:30am 29.5 32.9 20.1 57 6.2 NE 2 7 1 4 1007.8 1007.1 0.0
31/11:00am 28.8 32.3 20.3 60 5.6 NW 2 9 1 5 1008.3 1007.6 0.0
31/10:30am 28.0 30.6 20.0 61 5.3 N 6 13 3 7 1008.6 1007.9 0.0
31/10:00am 27.1 29.7 20.0 65 4.7 WSW 6 9 3 5 1009.0 1008.3 0.0
31/09:30am 26.6 29.2 20.0 67 4.3 NNW 6 9 3 5 1009.1 1008.4 0.0
31/09:00am 26.5 29.4 19.9 67 4.3 NNW 4 9 2 5 1009.1 1008.4 0.0
31/08:30am 25.6 28.9 19.9 70 3.7 N 2 6 1 3 1009.2 1008.5 0.0
31/08:00am 25.5 29.2 19.9 71 3.6 CALM 0 2 0 1 1009.0 1008.3 0.0
31/07:30am 24.9 28.8 20.4 76 2.9 CALM 0 0 0 0 1009.0 1008.3 0.0
31/07:00am 22.6 26.1 19.6 83 1.9 CALM 0 4 0 2 1009.0 1008.3 0.0
31/06:30am 21.3 24.8 19.6 90 1.1 CALM 0 0 0 0 1008.6 1007.9 0.0
31/06:00am 20.2 23.3 19.4 95 0.5 WSW 2 6 1 3 1008.4 1007.7 0.0
31/05:30am 19.4 22.5 18.6 95 0.5 CALM 0 0 0 0 1007.9 1007.2 0.0
31/05:00am 19.7 22.8 18.7 94 0.6 CALM 0 0 0 0 1007.5 1006.8 0.0
31/04:30am 19.8 22.9 18.6 93 0.8 CALM 0 0 0 0 1007.4 1006.7 0.0
31/04:00am 20.3 23.7 19.3 94 0.6 CALM 0 0 0 0 1007.3 1006.6 0.0
31/03:30am 20.3 23.7 19.3 94 0.6 CALM 0 0 0 0 1007.2 1006.5 0.0
31/03:00am 20.3 23.6 19.1 93 0.8 CALM 0 0 0 0 1007.3 1006.6 0.0
31/02:30am 20.6 23.0 18.9 90 1.1 SE 4 6 2 3 1007.3 1006.6 0.0
31/02:00am 21.0 24.4 19.3 90 1.1 CALM 0 0 0 0 1007.4 1006.7 0.0
31/01:30am 21.3 24.0 19.4 89 1.2 NE 4 6 2 3 1007.6 1006.9 0.0
31/01:00am 21.6 24.3 19.5 88 1.3 E 4 6 2 3 1007.9 1007.2 0.0
31/12:30am 21.7 23.9 19.6 88 1.3 ENE 7 9 4 5 1008.2 1007.5 0.0
31/12:00am 22.2 24.6 19.7 86 1.6 E 6 6 3 3 1008.7 1008.0 0.0
 
Date/Time
EST
Temp
°C
App
Temp
°C
Dew
Point
Rel
Hum
%
Delta-T
°C
Wind Press
QNH
hPa
Press
MSL
hPa
Rain
since 9 am
mm
Dir
 
Spd
km/h
Gust
km/h
Spd
kts
Gust
kts
30/11:30pm 22.5 24.8 19.9 85 1.7 ENE 7 9 4 5 1008.9 1008.2 0.0
30/11:00pm 23.0 25.3 19.8 82 2.1 ENE 7 9 4 5 1008.9 1008.2 0.0
30/10:30pm 23.3 25.5 19.7 80 2.3 ENE 7 9 4 5 1008.9 1008.2 0.0
30/10:00pm 23.5 25.9 19.6 79 2.5 NE 6 7 3 4 1008.9 1008.2 0.0
30/09:30pm 24.2 26.0 19.5 75 3.0 NE 9 13 5 7 1008.6 1007.9 0.0
30/09:00pm 24.6 26.3 19.4 73 3.4 NE 9 15 5 8 1008.5 1007.8 0.0
30/08:30pm 24.9 26.3 19.5 72 3.5 ENE 11 17 6 9 1008.2 1007.5 0.0
30/08:00pm 25.3 26.9 19.9 72 3.5 ENE 11 19 6 10 1007.7 1007.0 0.0
30/07:30pm 25.7 27.3 20.0 71 3.7 NE 11 17 6 9 1007.3 1006.6 0.0
30/07:00pm 26.2 27.1 20.1 69 4.0 NE 15 20 8 11 1006.9 1006.2 0.0
30/06:30pm 28.3 29.8 17.5 52 6.8 E 6 7 3 4 1006.5 1005.8 0.0
30/06:00pm 29.7 30.4 16.1 43 8.5 E 7 11 4 6 1006.0 1005.3 0.0
30/05:30pm 30.8 32.7 16.8 43 8.9 SW 2 6 1 3 1005.9 1005.2 0.0
30/05:00pm 29.8 30.7 16.2 43 8.5 SSE 6 9 3 5 1005.7 1005.0 0.0
30/04:30pm 30.7 31.8 15.5 39 9.4 S 4 9 2 5 1005.6 1004.9 0.0
30/04:00pm 30.1 30.9 15.8 42 8.9 NNE 6 7 3 4 1005.8 1005.1 0.0
30/03:30pm 30.4 30.7 16.0 41 9.0 SW 9 13 5 7 1006.0 1005.3 0.0
30/03:00pm 30.4 30.7 14.9 39 9.5 SW 7 11 4 6 1006.2 1005.5 0.0
30/02:30pm 30.3 31.8 16.7 44 8.6 WNW 4 11 2 6 1006.6 1005.9 0.0
30/02:00pm 29.9 31.2 17.0 45 8.2 WNW 6 9 3 5 1006.7 1006.0 0.0
30/01:30pm 29.7 31.3 18.2 50 7.4 W 7 13 4 7 1007.2 1006.5 0.0
30/01:00pm 29.0 30.3 17.2 49 7.5 N 6 11 3 6 1007.7 1007.0 0.0
30/12:30pm 28.3 29.6 17.5 52 6.8 NNE 7 13 4 7 1008.1 1007.4 0.0
30/12:00pm 27.8 29.4 19.1 59 5.6 N 9 13 5 7 1008.6 1007.9 0.0
30/11:30am 27.8 29.6 18.2 56 6.1 NNW 6 13 3 7 1009.0 1008.3 0.0
30/11:00am 27.6 29.9 18.6 58 5.8 NE 4 9 2 5 1009.3 1008.6 0.0
30/10:30am 26.9 28.7 18.2 59 5.5 NE 6 13 3 7 1009.5 1008.8 0.0

Other Formats:

Comma delimited format used in spreadsheet applications
http://www.bom.gov.au/fwo/IDQ60801/IDQ60801.95543.axf

JavaScript Object Notation format (JSON) in row-major order
http://www.bom.gov.au/fwo/IDQ60801/IDQ60801.95543.json